Rowesville, South Carolina
Current Conditions -  °F | °C
As of 8:53 PM on Wednesday 22 Oct 2014 (Local Time) from KOGB Reporting Station
Clear Clear  
Wind Chill: 50°   Ceiling: Unl
Heat Index: 50°   Visibility: 10mi
Dew Point: 45°   Wind: 3mph
Humidity: 83%   Direction: 220°SW
Pressure: 30.06"   Gusts: NA
Location:  33.37°N, 80.84°W
Report Text: KOGB 230053Z AUTO 22003KT 10SM CLR 10/07 A3006 RMK AO2 SLP178 T01000072
Loading
Personal Weather Stations






























Interactive Weather Map
Tropical Storm Tracking
New forecast layout! Learn more

10-Day Weather Forecast

Advertisements
Track Severe Weather on mobile